sensor_id;sensor_type;location;lat;lon;timestamp;pressure;altitude;pressure_sealevel;temperature;humidity
9139;BME280;4604;48.616;9.548;2022-09-27T00:00:38;95238.66;;;11.55;85.91
9139;BME280;4604;48.616;9.548;2022-09-27T00:03:05;95242.44;;;11.67;86.15
9139;BME280;4604;48.616;9.548;2022-09-27T00:05:32;95218.63;;;11.46;87.70
9139;BME280;4604;48.616;9.548;2022-09-27T00:07:59;95214.44;;;11.51;87.88
9139;BME280;4604;48.616;9.548;2022-09-27T00:10:26;95221.22;;;11.61;88.72
9139;BME280;4604;48.616;9.548;2022-09-27T00:12:54;95215.84;;;11.69;87.86
9139;BME280;4604;48.616;9.548;2022-09-27T00:15:21;95208.31;;;11.66;87.53
9139;BME280;4604;48.616;9.548;2022-09-27T00:17:48;95211.03;;;11.57;87.24
9139;BME280;4604;48.616;9.548;2022-09-27T00:20:17;95217.88;;;11.30;89.61
9139;BME280;4604;48.616;9.548;2022-09-27T00:22:45;95209.47;;;11.42;88.54
9139;BME280;4604;48.616;9.548;2022-09-27T00:25:12;95205.88;;;11.49;88.90
9139;BME280;4604;48.616;9.548;2022-09-27T00:27:41;95178.13;;;11.39;89.18
9139;BME280;4604;48.616;9.548;2022-09-27T00:30:11;95203.00;;;11.44;90.06
9139;BME280;4604;48.616;9.548;2022-09-27T00:32:39;95214.13;;;11.40;91.42
9139;BME280;4604;48.616;9.548;2022-09-27T00:35:08;95165.81;;;11.24;92.68
9139;BME280;4604;48.616;9.548;2022-09-27T00:37:35;95176.81;;;11.28;92.08
9139;BME280;4604;48.616;9.548;2022-09-27T00:40:02;95190.00;;;11.28;93.39
9139;BME280;4604;48.616;9.548;2022-09-27T00:42:29;95193.81;;;11.40;92.67
9139;BME280;4604;48.616;9.548;2022-09-27T00:45:06;95129.16;;;11.00;93.94
9139;BME280;4604;48.616;9.548;2022-09-27T00:47:40;95169.75;;;11.13;95.54
9139;BME280;4604;48.616;9.548;2022-09-27T00:50:20;95187.50;;;11.20;95.99
9139;BME280;4604;48.616;9.548;2022-09-27T00:52:52;95176.56;;;11.23;95.87
9139;BME280;4604;48.616;9.548;2022-09-27T00:55:25;95188.81;;;11.30;97.48
9139;BME280;4604;48.616;9.548;2022-09-27T00:57:55;95167.09;;;11.13;94.98
9139;BME280;4604;48.616;9.548;2022-09-27T01:00:23;95176.94;;;11.20;97.11
9139;BME280;4604;48.616;9.548;2022-09-27T01:02:54;95184.00;;;11.19;97.93
9139;BME280;4604;48.616;9.548;2022-09-27T01:05:24;95178.84;;;11.11;99.32
9139;BME280;4604;48.616;9.548;2022-09-27T01:07:52;95185.84;;;11.19;98.08
9139;BME280;4604;48.616;9.548;2022-09-27T01:10:22;95162.16;;;11.25;96.97
9139;BME280;4604;48.616;9.548;2022-09-27T01:13:07;95109.88;;;10.99;95.93
9139;BME280;4604;48.616;9.548;2022-09-27T01:15:46;95143.97;;;11.16;95.55
9139;BME280;4604;48.616;9.548;2022-09-27T01:25:31;95105.28;;;10.86;97.08
9139;BME280;4604;48.616;9.548;2022-09-27T01:28:21;95127.41;;;11.07;96.58
9139;BME280;4604;48.616;9.548;2022-09-27T01:30:56;95116.22;;;10.83;98.34
9139;BME280;4604;48.616;9.548;2022-09-27T01:33:33;95162.19;;;11.10;99.82
9139;BME280;4604;48.616;9.548;2022-09-27T01:36:12;95151.97;;;11.22;98.72
9139;BME280;4604;48.616;9.548;2022-09-27T01:38:53;95125.13;;;10.82;99.06
9139;BME280;4604;48.616;9.548;2022-09-27T01:41:28;95122.69;;;10.81;100.00
9139;BME280;4604;48.616;9.548;2022-09-27T01:44:02;95153.03;;;10.91;100.00
9139;BME280;4604;48.616;9.548;2022-09-27T01:46:34;95107.78;;;10.73;100.00
9139;BME280;4604;48.616;9.548;2022-09-27T01:49:08;95137.06;;;10.78;99.59
9139;BME280;4604;48.616;9.548;2022-09-27T01:51:39;95175.41;;;11.10;100.00
9139;BME280;4604;48.616;9.548;2022-09-27T01:54:12;95170.75;;;11.12;97.44
9139;BME280;4604;48.616;9.548;2022-09-27T01:56:45;95140.00;;;11.05;98.55
9139;BME280;4604;48.616;9.548;2022-09-27T01:59:16;95161.56;;;11.08;98.09
9139;BME280;4604;48.616;9.548;2022-09-27T02:01:48;95103.22;;;10.67;98.20
9139;BME280;4604;48.616;9.548;2022-09-27T02:04:21;95160.94;;;11.06;98.65
9139;BME280;4604;48.616;9.548;2022-09-27T02:06:55;95160.38;;;11.11;98.21
9139;BME280;4604;48.616;9.548;2022-09-27T02:09:30;95109.66;;;10.79;98.73
9139;BME280;4604;48.616;9.548;2022-09-27T02:12:02;95133.28;;;10.87;99.34
9139;BME280;4604;48.616;9.548;2022-09-27T02:14:35;95156.84;;;11.04;97.91
9139;BME280;4604;48.616;9.548;2022-09-27T02:17:10;95117.25;;;11.04;96.09
9139;BME280;4604;48.616;9.548;2022-09-27T02:19:50;95150.78;;;11.25;95.71
9139;BME280;4604;48.616;9.548;2022-09-27T02:22:32;95160.19;;;11.12;96.80
9139;BME280;4604;48.616;9.548;2022-09-27T02:25:06;95132.94;;;10.90;96.88
9139;BME280;4604;48.616;9.548;2022-09-27T02:27:39;95150.56;;;11.05;97.52
9139;BME280;4604;48.616;9.548;2022-09-27T02:30:12;95120.69;;;10.83;99.41
9139;BME280;4604;48.616;9.548;2022-09-27T02:32:42;95151.00;;;11.08;99.36
9139;BME280;4604;48.616;9.548;2022-09-27T02:35:13;95164.63;;;10.90;100.00
9139;BME280;4604;48.616;9.548;2022-09-27T02:37:42;95134.53;;;10.40;100.00
9139;BME280;4604;48.616;9.548;2022-09-27T02:40:10;95160.19;;;10.61;100.00
9139;BME280;4604;48.616;9.548;2022-09-27T02:42:38;95171.28;;;10.57;100.00
9139;BME280;4604;48.616;9.548;2022-09-27T02:45:07;95159.19;;;10.33;100.00
9139;BME280;4604;48.616;9.548;2022-09-27T02:47:48;95168.28;;;10.45;100.00
9139;BME280;4604;48.616;9.548;2022-09-27T02:50:43;95165.50;;;10.23;100.00
9139;BME280;4604;48.616;9.548;2022-09-27T02:53:19;95159.50;;;10.15;100.00
9139;BME280;4604;48.616;9.548;2022-09-27T02:56:00;95158.13;;;10.19;100.00
9139;BME280;4604;48.616;9.548;2022-09-27T02:58:36;95170.88;;;10.15;100.00
9139;BME280;4604;48.616;9.548;2022-09-27T03:01:12;95188.25;;;10.24;100.00
9139;BME280;4604;48.616;9.548;2022-09-27T03:03:49;95199.13;;;10.21;100.00
9139;BME280;4604;48.616;9.548;2022-09-27T03:06:26;95157.38;;;9.80;100.00
9139;BME280;4604;48.616;9.548;2022-09-27T03:08:54;95188.41;;;10.08;100.00
9139;BME280;4604;48.616;9.548;2022-09-27T03:11:22;95200.53;;;9.94;100.00
9139;BME280;4604;48.616;9.548;2022-09-27T03:13:49;95193.25;;;9.81;100.00
9139;BME280;4604;48.616;9.548;2022-09-27T03:16:16;95207.59;;;9.79;100.00
9139;BME280;4604;48.616;9.548;2022-09-27T03:18:43;95201.66;;;9.77;100.00
9139;BME280;4604;48.616;9.548;2022-09-27T03:21:12;95224.97;;;9.88;100.00
9139;BME280;4604;48.616;9.548;2022-09-27T03:23:39;95227.41;;;9.90;100.00
9139;BME280;4604;48.616;9.548;2022-09-27T03:26:05;95207.47;;;9.72;100.00
9139;BME280;4604;48.616;9.548;2022-09-27T03:28:33;95186.41;;;9.49;100.00
9139;BME280;4604;48.616;9.548;2022-09-27T03:31:00;95177.78;;;9.55;100.00
9139;BME280;4604;48.616;9.548;2022-09-27T03:33:27;95197.88;;;9.56;100.00
9139;BME280;4604;48.616;9.548;2022-09-27T03:35:54;95236.50;;;9.87;100.00
9139;BME280;4604;48.616;9.548;2022-09-27T03:38:23;95240.22;;;9.78;100.00
9139;BME280;4604;48.616;9.548;2022-09-27T03:40:50;95242.47;;;9.81;100.00
9139;BME280;4604;48.616;9.548;2022-09-27T03:43:17;95219.88;;;9.63;100.00
9139;BME280;4604;48.616;9.548;2022-09-27T03:45:44;95239.88;;;9.73;100.00
9139;BME280;4604;48.616;9.548;2022-09-27T03:48:11;95228.47;;;9.57;100.00
9139;BME280;4604;48.616;9.548;2022-09-27T03:50:38;95253.38;;;9.78;100.00
9139;BME280;4604;48.616;9.548;2022-09-27T03:53:05;95235.34;;;9.67;100.00
9139;BME280;4604;48.616;9.548;2022-09-27T03:55:35;95230.88;;;9.44;100.00
9139;BME280;4604;48.616;9.548;2022-09-27T03:58:02;95242.94;;;9.61;100.00
9139;BME280;4604;48.616;9.548;2022-09-27T04:00:35;95218.00;;;9.49;100.00
9139;BME280;4604;48.616;9.548;2022-09-27T04:03:02;95234.84;;;9.63;100.00
9139;BME280;4604;48.616;9.548;2022-09-27T04:05:36;95261.16;;;9.71;100.00
9139;BME280;4604;48.616;9.548;2022-09-27T04:08:03;95248.44;;;9.75;100.00
9139;BME280;4604;48.616;9.548;2022-09-27T04:10:35;95238.56;;;9.77;100.00
9139;BME280;4604;48.616;9.548;2022-09-27T04:13:02;95259.84;;;9.67;100.00
9139;BME280;4604;48.616;9.548;2022-09-27T04:15:36;95262.88;;;9.56;100.00
9139;BME280;4604;48.616;9.548;2022-09-27T04:18:04;95263.88;;;9.55;100.00
9139;BME280;4604;48.616;9.548;2022-09-27T04:20:36;95212.19;;;9.31;100.00
9139;BME280;4604;48.616;9.548;2022-09-27T04:23:04;95230.03;;;9.43;100.00
9139;BME280;4604;48.616;9.548;2022-09-27T04:25:38;95258.03;;;9.45;100.00
9139;BME280;4604;48.616;9.548;2022-09-27T04:28:05;95242.75;;;9.40;100.00
9139;BME280;4604;48.616;9.548;2022-09-27T04:30:34;95231.56;;;9.38;100.00
9139;BME280;4604;48.616;9.548;2022-09-27T04:33:01;95259.94;;;9.51;100.00
9139;BME280;4604;48.616;9.548;2022-09-27T04:35:27;95261.59;;;9.52;100.00
9139;BME280;4604;48.616;9.548;2022-09-27T04:38:13;95271.94;;;9.53;100.00
9139;BME280;4604;48.616;9.548;2022-09-27T04:40:41;95253.94;;;9.34;100.00
9139;BME280;4604;48.616;9.548;2022-09-27T04:43:09;95268.84;;;9.50;100.00
9139;BME280;4604;48.616;9.548;2022-09-27T04:45:36;95272.06;;;9.37;100.00
9139;BME280;4604;48.616;9.548;2022-09-27T04:48:04;95241.19;;;9.23;100.00
9139;BME280;4604;48.616;9.548;2022-09-27T04:50:30;95255.31;;;9.30;100.00
9139;BME280;4604;48.616;9.548;2022-09-27T04:52:58;95263.34;;;9.36;100.00
9139;BME280;4604;48.616;9.548;2022-09-27T04:55:25;95285.31;;;9.52;100.00
9139;BME280;4604;48.616;9.548;2022-09-27T04:57:54;95293.84;;;9.54;100.00
9139;BME280;4604;48.616;9.548;2022-09-27T05:00:20;95290.56;;;9.52;100.00
9139;BME280;4604;48.616;9.548;2022-09-27T05:02:47;95264.03;;;9.30;100.00
9139;BME280;4604;48.616;9.548;2022-09-27T05:05:15;95296.13;;;9.57;100.00
9139;BME280;4604;48.616;9.548;2022-09-27T05:07:42;95301.25;;;9.50;100.00
9139;BME280;4604;48.616;9.548;2022-09-27T05:10:09;95294.75;;;9.38;100.00
9139;BME280;4604;48.616;9.548;2022-09-27T05:12:36;95290.81;;;9.34;100.00
9139;BME280;4604;48.616;9.548;2022-09-27T05:15:05;95305.41;;;9.45;100.00
9139;BME280;4604;48.616;9.548;2022-09-27T05:17:38;95326.94;;;9.48;100.00
9139;BME280;4604;48.616;9.548;2022-09-27T05:20:05;95321.88;;;9.47;100.00
9139;BME280;4604;48.616;9.548;2022-09-27T05:22:35;95328.59;;;9.49;100.00
9139;BME280;4604;48.616;9.548;2022-09-27T05:25:03;95312.72;;;9.34;100.00
9139;BME280;4604;48.616;9.548;2022-09-27T05:27:30;95306.19;;;9.22;100.00
9139;BME280;4604;48.616;9.548;2022-09-27T05:29:57;95321.28;;;9.28;100.00
9139;BME280;4604;48.616;9.548;2022-09-27T05:32:28;95336.06;;;9.37;100.00
9139;BME280;4604;48.616;9.548;2022-09-27T05:34:55;95313.59;;;9.18;100.00
9139;BME280;4604;48.616;9.548;2022-09-27T05:37:21;95335.41;;;9.35;100.00
9139;BME280;4604;48.616;9.548;2022-09-27T05:39:48;95319.56;;;9.04;100.00
9139;BME280;4604;48.616;9.548;2022-09-27T05:42:15;95325.31;;;9.08;100.00
9139;BME280;4604;48.616;9.548;2022-09-27T05:44:42;95346.13;;;9.26;100.00
9139;BME280;4604;48.616;9.548;2022-09-27T05:47:13;95342.63;;;9.33;100.00
9139;BME280;4604;48.616;9.548;2022-09-27T05:49:41;95345.13;;;9.35;100.00
9139;BME280;4604;48.616;9.548;2022-09-27T05:52:08;95337.56;;;9.24;100.00
9139;BME280;4604;48.616;9.548;2022-09-27T05:54:36;95323.00;;;9.13;100.00
9139;BME280;4604;48.616;9.548;2022-09-27T05:57:02;95344.81;;;9.21;100.00
9139;BME280;4604;48.616;9.548;2022-09-27T05:59:38;95363.69;;;9.41;100.00
9139;BME280;4604;48.616;9.548;2022-09-27T06:02:05;95363.84;;;9.40;100.00
9139;BME280;4604;48.616;9.548;2022-09-27T06:04:35;95357.66;;;9.25;100.00
9139;BME280;4604;48.616;9.548;2022-09-27T06:07:03;95356.50;;;9.19;100.00
9139;BME280;4604;48.616;9.548;2022-09-27T06:09:30;95363.94;;;9.15;100.00
9139;BME280;4604;48.616;9.548;2022-09-27T06:11:57;95357.97;;;9.21;100.00
9139;BME280;4604;48.616;9.548;2022-09-27T06:14:24;95322.25;;;8.88;100.00
9139;BME280;4604;48.616;9.548;2022-09-27T06:16:52;95320.25;;;8.90;100.00
9139;BME280;4604;48.616;9.548;2022-09-27T06:19:19;95325.28;;;9.16;100.00
9139;BME280;4604;48.616;9.548;2022-09-27T06:21:48;95318.28;;;9.00;100.00
9139;BME280;4604;48.616;9.548;2022-09-27T06:24:17;95381.34;;;9.25;100.00
9139;BME280;4604;48.616;9.548;2022-09-27T06:26:43;95330.25;;;9.03;100.00
9139;BME280;4604;48.616;9.548;2022-09-27T06:29:10;95369.03;;;9.17;100.00
9139;BME280;4604;48.616;9.548;2022-09-27T06:31:38;95384.28;;;9.21;100.00
9139;BME280;4604;48.616;9.548;2022-09-27T06:34:05;95350.63;;;9.09;100.00
9139;BME280;4604;48.616;9.548;2022-09-27T06:36:32;95384.28;;;9.21;100.00
9139;BME280;4604;48.616;9.548;2022-09-27T06:38:59;95366.41;;;9.09;100.00
9139;BME280;4604;48.616;9.548;2022-09-27T06:41:28;95394.31;;;9.34;100.00
9139;BME280;4604;48.616;9.548;2022-09-27T06:43:55;95391.84;;;9.33;100.00
9139;BME280;4604;48.616;9.548;2022-09-27T06:46:22;95383.31;;;9.14;100.00
9139;BME280;4604;48.616;9.548;2022-09-27T06:48:49;95369.22;;;9.07;100.00
9139;BME280;4604;48.616;9.548;2022-09-27T06:51:17;95400.25;;;9.28;100.00
9139;BME280;4604;48.616;9.548;2022-09-27T06:53:44;95398.59;;;9.35;100.00
9139;BME280;4604;48.616;9.548;2022-09-27T06:56:11;95423.22;;;9.51;100.00
9139;BME280;4604;48.616;9.548;2022-09-27T06:58:39;95405.03;;;9.25;100.00
9139;BME280;4604;48.616;9.548;2022-09-27T07:01:27;95396.69;;;9.13;100.00
9139;BME280;4604;48.616;9.548;2022-09-27T07:03:54;95409.34;;;9.17;100.00
9139;BME280;4604;48.616;9.548;2022-09-27T07:06:21;95410.97;;;9.18;100.00
9139;BME280;4604;48.616;9.548;2022-09-27T07:08:49;95442.53;;;9.35;100.00
9139;BME280;4604;48.616;9.548;2022-09-27T07:11:17;95444.16;;;9.36;100.00
9139;BME280;4604;48.616;9.548;2022-09-27T07:13:46;95461.09;;;9.33;100.00
9139;BME280;4604;48.616;9.548;2022-09-27T07:16:13;95432.84;;;9.27;100.00
9139;BME280;4604;48.616;9.548;2022-09-27T07:18:40;95456.34;;;9.29;100.00
9139;BME280;4604;48.616;9.548;2022-09-27T07:21:08;95445.38;;;9.17;100.00
9139;BME280;4604;48.616;9.548;2022-09-27T07:23:38;95461.44;;;9.30;100.00
9139;BME280;4604;48.616;9.548;2022-09-27T07:26:05;95454.19;;;9.49;100.00
9139;BME280;4604;48.616;9.548;2022-09-27T07:28:33;95474.59;;;9.47;100.00
9139;BME280;4604;48.616;9.548;2022-09-27T07:31:02;95469.81;;;9.42;100.00
9139;BME280;4604;48.616;9.548;2022-09-27T07:33:30;95467.81;;;9.52;100.00
9139;BME280;4604;48.616;9.548;2022-09-27T07:35:57;95454.19;;;9.40;100.00
9139;BME280;4604;48.616;9.548;2022-09-27T07:38:24;95456.19;;;9.30;100.00
9139;BME280;4604;48.616;9.548;2022-09-27T07:40:51;95457.34;;;9.28;100.00
9139;BME280;4604;48.616;9.548;2022-09-27T07:43:18;95432.34;;;9.15;100.00
9139;BME280;4604;48.616;9.548;2022-09-27T07:45:45;95478.84;;;9.48;100.00
9139;BME280;4604;48.616;9.548;2022-09-27T07:48:14;95471.44;;;9.43;100.00
9139;BME280;4604;48.616;9.548;2022-09-27T07:50:42;95496.63;;;9.54;100.00
9139;BME280;4604;48.616;9.548;2022-09-27T07:53:09;95472.94;;;9.37;100.00
9139;BME280;4604;48.616;9.548;2022-09-27T07:55:38;95488.41;;;9.40;100.00
9139;BME280;4604;48.616;9.548;2022-09-27T07:58:08;95487.56;;;9.48;100.00
9139;BME280;4604;48.616;9.548;2022-09-27T08:00:39;95497.25;;;9.64;100.00
9139;BME280;4604;48.616;9.548;2022-09-27T08:03:07;95492.81;;;9.64;100.00
9139;BME280;4604;48.616;9.548;2022-09-27T08:05:44;95498.88;;;9.65;100.00
9139;BME280;4604;48.616;9.548;2022-09-27T08:08:12;95462.41;;;9.37;98.56
9139;BME280;4604;48.616;9.548;2022-09-27T08:10:39;95499.84;;;9.72;97.48
9139;BME280;4604;48.616;9.548;2022-09-27T08:13:09;95500.53;;;9.66;96.52
9139;BME280;4604;48.616;9.548;2022-09-27T08:15:39;95485.22;;;9.70;97.58
9139;BME280;4604;48.616;9.548;2022-09-27T08:18:06;95522.22;;;9.93;96.86
9139;BME280;4604;48.616;9.548;2022-09-27T08:20:34;95505.88;;;9.97;97.86
9139;BME280;4604;48.616;9.548;2022-09-27T08:23:02;95520.84;;;9.97;96.93
9139;BME280;4604;48.616;9.548;2022-09-27T08:25:29;95535.19;;;9.94;97.64
9139;BME280;4604;48.616;9.548;2022-09-27T08:27:57;95530.81;;;9.78;94.43
9139;BME280;4604;48.616;9.548;2022-09-27T08:30:25;95535.06;;;9.79;96.23
9139;BME280;4604;48.616;9.548;2022-09-27T08:32:55;95527.00;;;9.73;97.07
9139;BME280;4604;48.616;9.548;2022-09-27T08:35:23;95525.38;;;9.72;97.89
9139;BME280;4604;48.616;9.548;2022-09-27T08:37:54;95549.38;;;9.85;100.00
9139;BME280;4604;48.616;9.548;2022-09-27T08:40:23;95552.06;;;9.69;98.56
9139;BME280;4604;48.616;9.548;2022-09-27T08:42:59;95553.84;;;9.84;99.43
9139;BME280;4604;48.616;9.548;2022-09-27T08:45:31;95550.91;;;10.19;96.57
9139;BME280;4604;48.616;9.548;2022-09-27T08:48:01;95560.13;;;10.39;95.55
9139;BME280;4604;48.616;9.548;2022-09-27T08:50:32;95523.31;;;10.46;94.07
9139;BME280;4604;48.616;9.548;2022-09-27T08:53:04;95559.59;;;10.44;90.47
9139;BME280;4604;48.616;9.548;2022-09-27T08:55:36;95503.03;;;10.07;89.82
9139;BME280;4604;48.616;9.548;2022-09-27T08:58:12;95544.09;;;10.41;90.14
9139;BME280;4604;48.616;9.548;2022-09-27T09:00:40;95501.22;;;10.07;87.86
9139;BME280;4604;48.616;9.548;2022-09-27T09:03:16;95558.47;;;10.69;87.96
9139;BME280;4604;48.616;9.548;2022-09-27T09:05:49;95562.84;;;10.85;84.14
9139;BME280;4604;48.616;9.548;2022-09-27T09:08:25;95541.25;;;10.82;84.11
9139;BME280;4604;48.616;9.548;2022-09-27T09:11:04;95560.78;;;11.19;85.82
9139;BME280;4604;48.616;9.548;2022-09-27T09:14:11;95562.69;;;11.48;84.83
9139;BME280;4604;48.616;9.548;2022-09-27T09:16:47;95516.69;;;11.19;83.73
9139;BME280;4604;48.616;9.548;2022-09-27T09:19:33;95511.41;;;11.19;83.41
9139;BME280;4604;48.616;9.548;2022-09-27T09:22:15;95540.50;;;10.96;83.84
9139;BME280;4604;48.616;9.548;2022-09-27T09:24:57;95549.94;;;10.59;85.80
9139;BME280;4604;48.616;9.548;2022-09-27T09:27:32;95573.66;;;10.67;85.47
9139;BME280;4604;48.616;9.548;2022-09-27T09:30:10;95578.84;;;10.53;84.33
9139;BME280;4604;48.616;9.548;2022-09-27T09:35:37;95550.34;;;10.00;88.59
9139;BME280;4604;48.616;9.548;2022-09-27T09:38:10;95561.16;;;10.22;89.72
9139;BME280;4604;48.616;9.548;2022-09-27T09:40:44;95570.66;;;10.39;85.63
9139;BME280;4604;48.616;9.548;2022-09-27T09:43:17;95577.22;;;10.43;84.06
9139;BME280;4604;48.616;9.548;2022-09-27T09:45:48;95547.28;;;10.28;85.44
9139;BME280;4604;48.616;9.548;2022-09-27T09:48:23;95567.69;;;10.26;86.39
9139;BME280;4604;48.616;9.548;2022-09-27T09:50:58;95581.75;;;10.18;83.33
9139;BME280;4604;48.616;9.548;2022-09-27T09:53:32;95590.00;;;10.07;81.83
9139;BME280;4604;48.616;9.548;2022-09-27T09:56:04;95590.19;;;10.05;79.67
9139;BME280;4604;48.616;9.548;2022-09-27T09:58:38;95598.88;;;10.31;80.68
9139;BME280;4604;48.616;9.548;2022-09-27T10:01:13;95578.84;;;10.53;75.70
9139;BME280;4604;48.616;9.548;2022-09-27T10:03:43;95587.88;;;10.58;75.60
9139;BME280;4604;48.616;9.548;2022-09-27T10:06:11;95580.81;;;10.82;75.75
9139;BME280;4604;48.616;9.548;2022-09-27T10:08:39;95577.44;;;10.73;75.03
9139;BME280;4604;48.616;9.548;2022-09-27T10:11:17;95545.34;;;10.84;74.27
9139;BME280;4604;48.616;9.548;2022-09-27T10:13:46;95520.31;;;11.03;74.29
9139;BME280;4604;48.616;9.548;2022-09-27T10:16:16;95559.81;;;11.72;69.94
9139;BME280;4604;48.616;9.548;2022-09-27T10:18:43;95571.16;;;11.81;70.11
9139;BME280;4604;48.616;9.548;2022-09-27T10:21:14;95571.38;;;11.56;70.04
9139;BME280;4604;48.616;9.548;2022-09-27T10:24:04;95542.81;;;11.14;71.52
9139;BME280;4604;48.616;9.548;2022-09-27T10:26:33;95565.41;;;11.17;73.88
9139;BME280;4604;48.616;9.548;2022-09-27T10:29:15;95544.13;;;11.18;74.85
9139;BME280;4604;48.616;9.548;2022-09-27T10:31:43;95478.84;;;10.89;77.83
9139;BME280;4604;48.616;9.548;2022-09-27T10:34:19;95506.75;;;11.44;74.17
9139;BME280;4604;48.616;9.548;2022-09-27T10:37:01;95516.97;;;12.00;74.30
9139;BME280;4604;48.616;9.548;2022-09-27T10:39:29;95537.63;;;12.11;69.46
9139;BME280;4604;48.616;9.548;2022-09-27T10:41:56;95525.31;;;12.04;71.75
9139;BME280;4604;48.616;9.548;2022-09-27T10:44:26;95540.81;;;12.73;72.17
9139;BME280;4604;48.616;9.548;2022-09-27T10:46:54;95540.19;;;13.28;67.20
9139;BME280;4604;48.616;9.548;2022-09-27T10:49:26;95536.78;;;13.56;65.43
9139;BME280;4604;48.616;9.548;2022-09-27T10:51:56;95540.13;;;13.72;62.68
9139;BME280;4604;48.616;9.548;2022-09-27T10:54:26;95522.09;;;13.32;62.46
9139;BME280;4604;48.616;9.548;2022-09-27T10:56:55;95531.09;;;13.94;61.43
9139;BME280;4604;48.616;9.548;2022-09-27T10:59:25;95506.59;;;13.57;62.80
9139;BME280;4604;48.616;9.548;2022-09-27T11:01:55;95524.72;;;13.11;62.71
9139;BME280;4604;48.616;9.548;2022-09-27T11:04:27;95543.44;;;13.09;62.94
9139;BME280;4604;48.616;9.548;2022-09-27T11:07:11;95546.78;;;12.96;64.86
9139;BME280;4604;48.616;9.548;2022-09-27T11:09:52;95549.66;;;12.80;66.05
9139;BME280;4604;48.616;9.548;2022-09-27T11:12:20;95526.34;;;12.69;68.12
9139;BME280;4604;48.616;9.548;2022-09-27T11:14:55;95533.53;;;12.96;69.08
9139;BME280;4604;48.616;9.548;2022-09-27T11:17:33;95535.19;;;12.97;68.30
9139;BME280;4604;48.616;9.548;2022-09-27T11:20:14;95531.53;;;12.98;67.39
9139;BME280;4604;48.616;9.548;2022-09-27T11:23:15;95508.50;;;12.77;68.60
9139;BME280;4604;48.616;9.548;2022-09-27T11:26:02;95505.56;;;12.51;68.07
9139;BME280;4604;48.616;9.548;2022-09-27T11:28:40;95505.84;;;12.77;66.46
9139;BME280;4604;48.616;9.548;2022-09-27T11:31:24;95509.72;;;13.39;67.81
9139;BME280;4604;48.616;9.548;2022-09-27T11:34:19;95502.81;;;13.02;66.14
9139;BME280;4604;48.616;9.548;2022-09-27T11:37:02;95458.66;;;12.81;66.19
9139;BME280;4604;48.616;9.548;2022-09-27T11:39:48;95470.69;;;12.83;66.51
9139;BME280;4604;48.616;9.548;2022-09-27T11:42:45;95491.66;;;13.06;67.61
9139;BME280;4604;48.616;9.548;2022-09-27T11:45:25;95463.44;;;13.70;64.55
9139;BME280;4604;48.616;9.548;2022-09-27T11:48:08;95482.78;;;13.64;62.98
9139;BME280;4604;48.616;9.548;2022-09-27T11:51:06;95479.91;;;13.65;62.76
9139;BME280;4604;48.616;9.548;2022-09-27T11:53:52;95443.09;;;13.42;61.63
9139;BME280;4604;48.616;9.548;2022-09-27T11:56:30;95483.53;;;13.58;62.26
9139;BME280;4604;48.616;9.548;2022-09-27T11:59:16;95475.66;;;13.64;63.44
9139;BME280;4604;48.616;9.548;2022-09-27T12:01:55;95479.38;;;13.20;60.58
9139;BME280;4604;48.616;9.548;2022-09-27T12:04:56;95458.00;;;13.00;62.08
9139;BME280;4604;48.616;9.548;2022-09-27T12:07:35;95457.59;;;13.46;63.85
9139;BME280;4604;48.616;9.548;2022-09-27T12:10:10;95437.94;;;13.69;60.67
9139;BME280;4604;48.616;9.548;2022-09-27T12:12:40;95434.59;;;14.37;59.33
9139;BME280;4604;48.616;9.548;2022-09-27T12:15:13;95438.78;;;14.86;58.42
9139;BME280;4604;48.616;9.548;2022-09-27T12:17:46;95423.88;;;14.17;55.25
9139;BME280;4604;48.616;9.548;2022-09-27T12:20:19;95406.59;;;13.79;57.08
9139;BME280;4604;48.616;9.548;2022-09-27T12:22:52;95447.03;;;13.95;57.55
9139;BME280;4604;48.616;9.548;2022-09-27T12:25:22;95426.03;;;13.93;58.04
9139;BME280;4604;48.616;9.548;2022-09-27T12:27:54;95444.97;;;13.48;58.95
9139;BME280;4604;48.616;9.548;2022-09-27T12:30:23;95437.63;;;13.22;59.85
9139;BME280;4604;48.616;9.548;2022-09-27T12:32:57;95420.16;;;13.28;62.20
9139;BME280;4604;48.616;9.548;2022-09-27T12:35:31;95414.50;;;13.10;61.53
9139;BME280;4604;48.616;9.548;2022-09-27T12:38:03;95449.69;;;13.03;61.66
9139;BME280;4604;48.616;9.548;2022-09-27T12:40:35;95444.53;;;12.95;63.25
9139;BME280;4604;48.616;9.548;2022-09-27T12:43:08;95445.53;;;12.73;65.43
9139;BME280;4604;48.616;9.548;2022-09-27T12:45:44;95444.06;;;12.27;69.03
9139;BME280;4604;48.616;9.548;2022-09-27T12:48:18;95463.69;;;12.03;73.94
9139;BME280;4604;48.616;9.548;2022-09-27T12:50:54;95482.75;;;11.84;77.67
9139;BME280;4604;48.616;9.548;2022-09-27T12:53:25;95493.94;;;11.71;80.34
9139;BME280;4604;48.616;9.548;2022-09-27T12:56:08;95503.41;;;11.12;85.34
9139;BME280;4604;48.616;9.548;2022-09-27T12:59:05;95466.88;;;10.32;91.91
9139;BME280;4604;48.616;9.548;2022-09-27T13:01:49;95509.41;;;10.29;99.57
9139;BME280;4604;48.616;9.548;2022-09-27T13:07:34;95493.72;;;10.27;100.00
9139;BME280;4604;48.616;9.548;2022-09-27T13:10:25;95475.72;;;10.00;100.00
9139;BME280;4604;48.616;9.548;2022-09-27T13:12:55;95460.94;;;9.91;100.00
9139;BME280;4604;48.616;9.548;2022-09-27T13:15:27;95491.59;;;9.83;100.00
9139;BME280;4604;48.616;9.548;2022-09-27T13:17:55;95484.25;;;10.02;100.00
9139;BME280;4604;48.616;9.548;2022-09-27T13:20:51;95489.31;;;10.12;100.00
9139;BME280;4604;48.616;9.548;2022-09-27T13:26:46;95484.38;;;10.56;99.66
9139;BME280;4604;48.616;9.548;2022-09-27T13:29:30;95472.22;;;10.70;96.71
9139;BME280;4604;48.616;9.548;2022-09-27T13:32:16;95487.78;;;10.88;95.79
9139;BME280;4604;48.616;9.548;2022-09-27T13:34:47;95459.63;;;10.80;95.73
9139;BME280;4604;48.616;9.548;2022-09-27T13:37:44;95465.72;;;11.19;96.17
9139;BME280;4604;48.616;9.548;2022-09-27T13:40:23;95471.94;;;11.41;95.18
9139;BME280;4604;48.616;9.548;2022-09-27T13:43:12;95438.34;;;11.34;94.42
9139;BME280;4604;48.616;9.548;2022-09-27T13:45:50;95473.16;;;11.53;91.97
9139;BME280;4604;48.616;9.548;2022-09-27T13:48:25;95470.22;;;11.63;86.25
9139;BME280;4604;48.616;9.548;2022-09-27T13:50:56;95449.63;;;11.58;89.13
9139;BME280;4604;48.616;9.548;2022-09-27T13:53:30;95464.41;;;11.52;88.11
9139;BME280;4604;48.616;9.548;2022-09-27T13:56:00;95456.81;;;11.20;85.53
9139;BME280;4604;48.616;9.548;2022-09-27T13:58:43;95471.63;;;11.06;87.90
9139;BME280;4604;48.616;9.548;2022-09-27T14:01:26;95466.00;;;11.24;88.99
9139;BME280;4604;48.616;9.548;2022-09-27T14:03:56;95463.38;;;11.39;86.67
9139;BME280;4604;48.616;9.548;2022-09-27T14:06:28;95466.94;;;11.61;81.81